x

8726607 - Old Port Tampa, Fl (optf1) Weather Station

2:18 - Wed 21st Nov 2018 All times are EST. -5 hours from GMT.

  • Wind
    17mph, 20mph gusts
  • Sea Temp 73°f
  • Ar Temp 69°f
  • Sea Pressure 1020.8mb
  • 8726607 - Old Port Tampa, Fl
  • 8726607 - Old Port Tampa, Fl

More Historic Weather Station data

Upgrade to MSW Pro to gain access to the past 30 days of data for over 8000 Wavebouys and Weather Stations around the globe.

Join

Comparision Forecast

View Surf forecast
   
Qua 11/21 2:18 17 20 mph 1020.8mb 73f 69f
2:12 16 20 mph 1021mb 72f 69f
2:06 16 17 mph 1021mb 72f 69f
2:00 17 18 mph 1021mb 72f 69f
1:54 15 17 mph 1021.1mb 72f 69f
1:48 14 17 mph 1021.1mb 72f 69f
1:42 14 16 mph 1021.1mb 72f 69f
1:36 14 17 mph 1021.1mb 72f 70f
1:30 13 15 mph 1021.1mb 72f 70f
1:24 11 14 mph 1021.2mb 72f 70f
1:18 11 13 mph 1021.2mb 72f 70f
1:12 11 14 mph 1021.3mb 72f 70f
1:06 9 11 mph 1021.3mb 72f 70f
1:00 10 13 mph 1021.3mb 72f 70f
12:54 10 11 mph 1021.4mb 72f 70f
12:48 11 11 mph 1021.4mb 72f 69f
12:42 11 13 mph 1021.5mb 72f 69f
12:36 10 11 mph 1021.5mb 72f 69f
12:30 9 11 mph 1021.7mb 72f 69f
12:24 9 11 mph 1021.9mb 72f 69f
12:18 10 11 mph 1021.9mb 72f 68f
12:12 8 9 mph 1022mb 72f 68f
12:06 7 9 mph 1022.1mb 72f 68f
12:00 7 9 mph 1022.2mb 72f 68f
11:54 8 9 mph 1022.2mb 72f 68f
11:48 8 9 mph 1022.3mb 72f 68f
11:42 7 9 mph 1022.5mb 72f 68f
11:36 9 10 mph 1022.5mb 72f 67f
11:30 7 9 mph 1022.6mb 72f 67f
11:24 7 8 mph 1022.8mb 72f 67f
11:18 7 9 mph 1022.8mb 72f 67f
11:12 7 11 mph 1022.8mb 72f 67f
11:06 9 10 mph 1022.8mb 72f 67f
11:00 9 10 mph 1022.8mb 72f 67f
10:54 6 9 mph 1022.9mb 72f 67f
10:48 7 9 mph 1023.1mb 72f 67f
10:42 8 9 mph 1023.1mb 72f 67f
10:36 7 9 mph 1023.2mb 72f 67f
10:30 7 8 mph 1023.2mb 72f 67f
10:24 8 10 mph 1023.2mb 72f 67f
10:18 8 9 mph 1023.1mb 72f 67f
10:12 8 9 mph 1023.1mb 72f 66f
10:06 8 10 mph 1023mb 72f 66f
10:00 8 10 mph 1023.1mb 72f 66f
9:54 7 9 mph 1023.2mb 72f 65f
9:48 8 10 mph 1023.2mb 72f 65f
9:42 8 9 mph 1023.2mb 72f 65f
9:36 7 8 mph 1023.2mb 71f 65f
9:30 7 8 mph 1023.2mb 72f 65f
9:24 7 9 mph 1023.2mb 72f 65f
9:18 6 8 mph 1023.1mb 72f 65f
9:12 6 8 mph 1023.1mb 72f 64f
9:06 6 8 mph 1023.1mb 71f 64f
9:00 7 9 mph 1023.1mb 71f 64f
8:54 8 10 mph 1023mb 71f 64f
8:48 8 10 mph 1022.9mb 71f 63f
8:42 8 10 mph 1022.8mb 71f 63f
8:36 9 11 mph 1022.7mb 71f 63f
8:30 8 13 mph 1022.7mb 71f 63f
8:24 9 13 mph 1022.7mb 71f 62f
8:18 9 13 mph 1022.6mb 71f 62f
8:12 10 15 mph 1022.5mb 71f 62f
8:06 10 14 mph 1022.4mb 71f 62f
8:00 8 11 mph 1022.4mb 71f 62f
7:18 8 11 mph 1021.9mb 71f 62f
7:12 8 10 mph 1021.8mb 71f 62f
7:06 9 13 mph 1021.8mb 71f 62f
7:00 7 10 mph 1021.7mb 71f 62f
6:54 8 13 mph 1021.6mb 71f 62f
6:48 9 13 mph 1021.5mb 72f 63f
6:42 8 11 mph 1021.5mb 72f 63f
6:36 8 9 mph 1021.3mb 72f 63f
6:30 7 9 mph 1021.3mb 72f 63f
6:24 7 10 mph 1021.3mb 72f 63f
6:18 8 13 mph 1021.2mb 72f 64f
6:12 8 14 mph 1021.2mb 72f 64f
6:06 9 14 mph 1021.1mb 72f 64f
6:00 11 14 mph 1021.1mb 72f 64f
5:54 11 15 mph 1021mb 72f 65f
5:48 11 14 mph 1020.8mb 72f 65f
5:42 8 10 mph 1020.8mb 72f 65f
5:36 8 10 mph 1020.9mb 72f 65f
5:30 6 9 mph 1020.8mb 72f 65f
5:24 7 9 mph 1020.8mb 72f 65f
5:18 7 9 mph 1020.7mb 72f 65f
5:12 6 9 mph 1020.6mb 72f 65f
5:06 7 8 mph 1020.5mb 72f 64f
5:00 6 7 mph 1020.5mb 72f 65f
4:54 6 8 mph 1020.5mb 72f 64f
4:48 7 9 mph 1020.5mb 72f 64f
4:42 6 8 mph 1020.5mb 72f 65f
4:36 6 8 mph 1020.5mb 72f 65f
4:30 6 8 mph 1020.6mb 72f 65f
4:24 6 7 mph 1020.7mb 72f 65f
4:18 6 8 mph 1020.7mb 72f 65f
4:12 7 8 mph 1020.6mb 72f 65f
4:06 5 7 mph 1020.6mb 72f 65f
4:00 5 7 mph 1020.5mb 72f 64f
3:18 5 6 mph 1020.5mb 72f 65f
3:12 6 8 mph 1020.5mb 72f 65f
3:06 5 7 mph 1020.4mb 72f 65f
3:00 5 6 mph 1020.4mb 72f 65f
2:54 5 7 mph 1020.5mb 72f 65f
2:48 6 8 mph 1020.5mb 72f 65f
2:42 6 8 mph 1020.5mb 72f 65f
2:36 6 8 mph 1020.5mb 72f 65f
2:30 6 9 mph 1020.4mb 72f 66f
2:24 7 8 mph 1020.4mb 72f 66f
2:18 6 8 mph 1020.5mb 72f 66f
2:12 7 8 mph 1020.5mb 72f 66f
2:06 7 9 mph 1020.6mb 72f 66f
2:00 7 8 mph 1020.5mb 72f 66f
1:54 7 9 mph 1020.5mb 72f 66f
1:48 8 9 mph 1020.5mb 72f 66f
1:42 7 9 mph 1020.6mb 72f 66f
1:36 9 10 mph 1020.6mb 72f 66f
1:30 6 8 mph 1020.7mb 72f 66f
1:24 7 9 mph 1020.6mb 72f 66f
1:18 8 9 mph 1020.5mb 72f 66f
1:12 9 11 mph 1020.5mb 72f 66f
1:06 8 11 mph 1020.6mb 72f 67f
1:00 10 13 mph 1020.7mb 72f 66f
12:18 10 13 mph 1020.9mb 72f 67f
12:12 10 13 mph 1020.9mb 72f 67f
12:06 11 13 mph 1020.8mb 72f 67f
12:00 10 13 mph 1020.8mb 72f 67f
Ter 11/20 11:54 11 13 mph 1020.7mb 72f 67f
11:48 9 11 mph 1020.7mb 72f 67f
11:42 10 11 mph 1020.8mb 72f 67f
11:36 10 11 mph 1020.8mb 72f 67f
11:30 9 11 mph 1020.8mb 72f 67f
11:24 9 10 mph 1020.8mb 72f 67f
11:18 8 9 mph 1020.7mb 72f 67f
11:12 8 10 mph 1020.8mb 72f 67f
11:06 8 9 mph 1020.9mb 72f 67f
11:00 5 8 mph 1020.9mb 72f 67f
10:54 8 9 mph 1020.7mb 72f 67f
10:48 8 10 mph 1020.7mb 72f 67f
10:42 9 11 mph 1020.7mb 72f 67f
10:36 10 11 mph 1020.7mb 72f 67f
10:30 10 11 mph 1020.7mb 72f 67f
10:24 10 11 mph 1020.8mb 72f 67f
10:18 10 13 mph 1020.6mb 72f 68f
10:12 11 13 mph 1020.5mb 72f 67f
10:06 10 14 mph 1020.5mb 72f 68f
10:00 11 14 mph 1020.5mb 72f 68f
9:54 13 14 mph 1020.4mb 72f 68f
9:48 13 14 mph 1020.3mb 72f 68f
9:42 10 11 mph 1020.2mb 72f 68f
9:36 9 11 mph 1020.2mb 72f 68f
9:30 11 13 mph 1020.2mb 72f 68f
9:24 11 14 mph 1020.1mb 72f 69f
9:18 11 13 mph 1020.1mb 72f 69f
9:12 10 14 mph 1020.2mb 72f 69f
9:06 13 14 mph 1020.1mb 72f 69f
9:00 11 14 mph 1020.1mb 73f 69f
8:54 11 14 mph 1020.2mb 73f 69f
8:48 9 13 mph 1020.2mb 73f 69f
8:42 10 13 mph 1020.3mb 73f 69f
8:36 10 13 mph 1020.3mb 73f 69f
8:30 11 14 mph 1020.2mb 73f 69f
8:24 13 14 mph 1020.1mb 73f 69f
8:18 13 15 mph 1020mb 73f 69f
8:12 14 15 mph 1020mb 73f 69f
8:06 14 15 mph 1020mb 73f 70f
8:00 14 15 mph 1019.9mb 73f 70f
7:54 13 15 mph 1019.8mb 73f 70f
7:48 13 15 mph 1019.8mb 73f 70f
7:42 14 16 mph 1019.7mb 73f 70f
7:36 14 16 mph 1019.6mb 73f 70f
7:30 14 16 mph 1019.6mb 73f 70f
7:24 14 17 mph 1019.5mb 73f 70f
7:18 16 17 mph 1019.5mb 73f 70f
7:12 16 18 mph 1019.4mb 73f 70f
7:06 16 17 mph 1019.3mb 73f 70f
7:00 14 17 mph 1019.2mb 73f 69f
6:54 14 16 mph 1019.2mb 73f 70f
6:48 14 15 mph 1019.2mb 73f 70f
6:42 15 16 mph 1019.1mb 73f 70f
6:36 15 17 mph 1019mb 73f 70f
6:30 16 18 mph 1019mb 73f 70f
6:24 14 17 mph 1019mb 73f 70f
6:18 15 17 mph 1019mb 73f 70f
6:12 15 18 mph 1018.8mb 73f 70f
6:06 17 20 mph 1018.7mb 73f 70f
6:00 15 18 mph 1018.7mb 73f 70f
5:18 13 15 mph 1018.2mb 73f 72f
5:12 14 15 mph 1018.2mb 73f 72f
5:06 15 17 mph 1018.3mb 73f 72f
5:00 14 16 mph 1018.2mb 73f 72f
4:54 13 15 mph 1018.2mb 73f 72f
4:48 13 15 mph 1018mb 73f 72f
4:42 14 16 mph 1017.9mb 73f 72f
4:36 13 15 mph 1017.7mb 73f 72f
4:30 13 17 mph 1017.7mb 73f 72f
4:24 17 21 mph 1017.9mb 73f 71f
4:18 20 23 mph 1018mb 73f 71f
4:12 21 24 mph 1018.1mb 73f 71f
4:06 20 23 mph 1017.9mb 73f 71f
4:00 21 23 mph 1017.6mb 73f 71f
3:54 21 24 mph 1017.6mb 73f 71f
3:48 22 25 mph 1017.6mb 73f 72f
3:42 20 22 mph 1017.5mb 73f 73f
3:36 15 20 mph 1017.3mb 73f 73f
3:30 6 7 mph 1017.3mb 73f 74f
3:24 6 7 mph 1017.2mb 73f 74f
3:18 7 7 mph 1017.2mb 73f 74f
3:12 2 3 mph 1017mb 73f 74f
3:06  -  1 mph 1016.8mb 73f 76f
3:00  -  2 mph 1016.8mb 73f 75f
2:54 2 3 mph 1016.8mb 73f 75f
2:48 3 5 mph 1016.8mb 73f 74f
2:42 5 5 mph 1016.9mb 73f 74f
2:36 5 6 mph 1016.8mb 73f 74f
2:30 6 7 mph 1016.8mb 73f 74f
2:24 6 7 mph 1016.9mb 73f 74f
2:18 5 5 mph 1016.9mb 73f 73f
2:12 3 3 mph 1017mb 73f 73f
2:06 3 5 mph 1017mb 73f 73f
2:00 5 6 mph 1017.2mb 73f 73f
1:54 5 6 mph 1017.3mb 73f 72f
1:48 5 6 mph 1017.4mb 73f 72f
1:42 5 5 mph 1017.4mb 73f 72f
1:36 3 3 mph 1017.4mb 73f 72f
1:30 3 3 mph 1017.6mb 73f 72f
1:24 2 3 mph 1017.7mb 73f 72f
1:18 2 2 mph 1017.9mb 73f 72f
1:12 2 2 mph 1018.2mb 73f 72f
1:06 2 3 mph 1018.2mb 73f 72f
1:00 3 6 mph 1018.3mb 73f 72f
12:54 6 8 mph 1018.3mb 73f 72f
12:48 9 11 mph 1018.3mb 73f 71f
12:42 9 11 mph 1018.4mb 73f 71f
12:36 10 13 mph 1018.6mb 73f 71f
12:30 11 13 mph 1018.9mb 73f 71f
12:24 10 13 mph 1019mb 73f 71f
12:18 11 15 mph 1019.1mb 73f 71f
12:12 15 17 mph 1019.3mb 73f 71f
12:06 16 18 mph 1019.4mb 73f 71f
12:00 15 17 mph 1019.5mb 73f 71f
11:54 14 16 mph 1019.6mb 73f 71f
11:48 13 16 mph 1019.7mb 72f 71f
11:42 15 17 mph 1019.6mb 72f 71f
11:36 15 17 mph 1019.6mb 72f 71f
11:30 15 17 mph 1019.7mb 73f 71f
11:24 14 15 mph 1019.6mb 73f 71f
11:18 15 17 mph 1019.6mb 72f 71f
11:12 14 16 mph 1019.7mb 72f 71f
11:06 11 14 mph 1019.9mb 72f 71f
11:00 9 10 mph 1019.9mb 72f 71f
10:54 5 6 mph 1019.8mb 72f 72f
10:48 5 5 mph 1019.6mb 72f 72f
10:42 3 5 mph 1019.6mb 72f 72f
10:36 3 5 mph 1019.7mb 72f 72f
10:30 3 5 mph 1019.7mb 72f 72f
10:24 2 3 mph 1019.8mb 72f 72f
10:18 3 5 mph 1019.8mb 72f 72f
10:12 3 6 mph 1019.9mb 72f 72f
10:06 3 5 mph 1020.1mb 72f 71f
10:00 2 3 mph 1020mb 72f 71f
9:54 3 5 mph 1019.9mb 72f 71f
9:48 3 5 mph 1019.9mb 72f 71f
9:42 3 6 mph 1019.7mb 72f 71f
9:36 6 6 mph 1019.6mb 72f 71f
9:30 5 6 mph 1019.7mb 72f 71f
9:24 6 7 mph 1019.6mb 72f 71f
9:18 5 6 mph 1019.6mb 72f 71f
9:12 5 6 mph 1019.6mb 72f 72f
9:06 3 5 mph 1019.6mb 72f 72f
9:00 5 6 mph 1019.5mb 72f 71f
8:54 3 5 mph 1019.4mb 72f 71f
8:48 2 3 mph 1019.3mb 72f 71f
8:42 2 5 mph 1019.3mb 72f 71f
8:36 3 3 mph 1019.2mb 72f 71f
8:30 2 3 mph 1019.2mb 72f 71f
8:24 2 3 mph 1019.1mb 72f 70f
8:18 1 1 mph 1019.1mb 72f 70f
8:12  -  1 mph 1018.9mb 72f 70f
8:06 1 2 mph 1018.8mb 72f 70f
8:00  -  2 mph 1018.7mb 72f 70f
7:54 2 3 mph 1018.7mb 72f 70f
7:48 2 3 mph 1018.5mb 72f 69f
7:42 3 3 mph 1018.5mb 72f 69f
7:36 2 3 mph 1018.6mb 72f 69f
7:30 2 5 mph 1018.5mb 72f 69f
7:24 3 5 mph 1018.3mb 72f 69f
7:18 3 3 mph 1018.3mb 72f 69f
7:12 2 3 mph 1018.3mb 72f 69f
7:06 2 5 mph 1018.2mb 72f 69f
7:00 2 5 mph 1018.2mb 72f 69f
6:54 3 5 mph 1018mb 72f 69f
6:48 2 3 mph 1018mb 72f 69f
6:42 1 2 mph 1018.1mb 72f 69f
6:36 2 2 mph 1018mb 72f 69f
6:30 2 2 mph 1017.9mb 72f 69f
6:24  -  1 mph 1018mb 72f 69f
6:18  -  1 mph 1018mb 72f 69f
6:12  -  1 mph 1017.8mb 72f 69f
6:06 1 2 mph 1017.8mb 72f 69f
6:00 1 2 mph 1017.8mb 72f 69f
5:54 1 2 mph 1017.8mb 72f 69f
5:48 1 1 mph 1017.7mb 72f 69f
5:42  -  1 mph 1017.7mb 72f 69f
5:36  -  1 mph 1017.6mb 72f 69f
5:30  -  1 mph 1017.6mb 72f 70f
5:24  -  1 mph 1017.6mb 72f 70f
5:18  -  0 mph 1017.5mb 72f 70f
5:12  -  2 mph 1017.4mb 72f 70f
5:06 2 3 mph 1017.3mb 72f 70f
5:00  -  2 mph 1017.3mb 72f 69f
4:54 1 2 mph 1017.3mb 72f 69f
4:48 2 3 mph 1017.2mb 72f 69f
4:42 2 6 mph 1017.1mb 72f 69f
4:36 3 5 mph 1017.1mb 73f 69f
4:30 2 5 mph 1017.2mb 73f 69f
4:24 2 5 mph 1017.2mb 73f 69f
4:18 3 5 mph 1017.3mb 73f 69f
4:12 2 3 mph 1017.3mb 73f 69f
4:06 2 5 mph 1017.2mb 73f 69f
4:00 2 5 mph 1017.2mb 73f 70f
3:54 2 3 mph 1017.3mb 73f 70f
3:48 2 5 mph 1017.3mb 73f 70f
3:42 2 3 mph 1017.3mb 73f 70f
3:36 2 5 mph 1017.2mb 73f 70f
3:30 3 5 mph 1017.2mb 73f 70f
3:24 2 5 mph 1017.3mb 73f 70f
3:18 3 6 mph 1017.2mb 73f 70f
3:12 3 7 mph 1017.1mb 73f 70f
3:06 5 7 mph 1017.1mb 73f 70f
3:00 3 6 mph 1017.2mb 73f 70f
2:54 3 5 mph 1017.3mb 73f 70f
2:48 2 5 mph 1017.4mb 73f 70f
2:42 3 5 mph 1017.4mb 73f 70f
2:36 2 6 mph 1017.3mb 73f 70f
2:30 3 5 mph 1017.3mb 73f 70f
2:24 3 5 mph 1017.4mb 73f 70f
2:18 2 5 mph 1017.5mb 73f 70f
2:12 2 5 mph 1017.6mb 73f 70f
2:06 2 3 mph 1017.7mb 73f 70f
2:00 1 3 mph 1017.7mb 73f 70f
1:54 1 5 mph 1017.7mb 73f 70f
1:48 3 5 mph 1017.6mb 73f 70f
1:42 2 5 mph 1017.7mb 73f 70f
1:36 2 3 mph 1017.8mb 73f 70f
1:30 1 2 mph 1017.9mb 73f 70f
1:24 1 3 mph 1018mb 73f 71f
1:18 2 2 mph 1018.1mb 73f 71f
1:12 2 2 mph 1018.2mb 73f 71f
1:06 1 2 mph 1018.2mb 73f 70f
1:00  -  2 mph 1018.2mb 73f 70f
12:54 1 3 mph 1018mb 73f 70f
12:48 2 3 mph 1018.1mb 73f 70f
12:42 2 5 mph 1018mb 73f 70f
12:36 2 3 mph 1018.1mb 73f 70f
12:30 2 3 mph 1018.1mb 73f 70f
12:24 1 2 mph 1018.1mb 73f 70f
12:18 1 2 mph 1018.1mb 73f 70f
12:12  -  2 mph 1018.2mb 73f 70f
12:06 1 2 mph 1018.2mb 73f 71f
12:00 2 3 mph 1018.2mb 73f 71f
Seg 11/19 11:54 2 3 mph 1018.3mb 73f 71f
11:48 1 3 mph 1018.3mb 73f 71f
11:42 3 3 mph 1018.4mb 73f 71f
11:36 2 5 mph 1018.4mb 73f 71f
11:30 3 6 mph 1018.5mb 73f 71f
11:24 6 6 mph 1018.5mb 73f 71f
11:18 5 6 mph 1018.6mb 73f 72f
11:12 3 5 mph 1018.6mb 73f 72f
11:06 3 7 mph 1018.6mb 73f 72f
11:00 6 7 mph 1018.7mb 73f 72f
10:54 5 7 mph 1018.7mb 73f 72f
10:48 6 8 mph 1018.8mb 73f 72f
10:42 6 8 mph 1018.8mb 73f 72f
10:36 7 8 mph 1018.9mb 73f 72f
10:30 6 7 mph 1018.9mb 73f 72f
10:24 6 6 mph 1018.9mb 73f 72f
10:18 6 7 mph 1018.9mb 73f 72f
10:12 6 7 mph 1018.8mb 73f 72f
10:06 6 6 mph 1018.9mb 73f 73f
10:00 5 6 mph 1018.9mb 73f 73f
9:54 5 6 mph 1018.8mb 73f 73f
9:48 5 6 mph 1018.8mb 73f 73f
9:42 5 6 mph 1018.8mb 73f 73f
9:36 6 7 mph 1018.7mb 73f 73f
9:30 5 6 mph 1018.7mb 73f 73f
9:24 5 7 mph 1018.7mb 73f 73f
9:18 6 7 mph 1018.6mb 73f 73f
9:12 5 6 mph 1018.7mb 73f 73f
9:06 6 7 mph 1018.7mb 73f 73f
9:00 6 9 mph 1018.7mb 73f 73f
8:54 8 9 mph 1018.7mb 73f 73f
8:48 6 7 mph 1018.8mb 73f 73f
8:42 6 8 mph 1018.9mb 73f 73f
8:36 6 7 mph 1018.9mb 73f 73f
8:30 7 8 mph 1018.9mb 73f 73f
8:24 7 7 mph 1018.8mb 73f 73f
8:18 6 8 mph 1018.8mb 73f 73f
8:12 8 9 mph 1018.9mb 73f 73f
8:06 8 8 mph 1018.8mb 73f 73f
8:00 7 8 mph 1018.7mb 73f 73f
7:54 7 8 mph 1018.7mb 73f 73f
7:48 7 7 mph 1018.7mb 73f 73f
7:42 7 7 mph 1018.6mb 73f 73f
7:36 6 7 mph 1018.6mb 73f 73f
7:30 7 8 mph 1018.5mb 73f 73f
7:24 7 9 mph 1018.5mb 73f 73f
7:18 7 9 mph 1018.4mb 73f 73f
7:12 7 8 mph 1018.2mb 73f 73f
7:06 8 8 mph 1018.2mb 73f 73f
7:00 7 8 mph 1018.2mb 73f 73f
6:54 7 9 mph 1018.1mb 73f 73f
6:48 8 10 mph 1018.1mb 73f 73f
6:42 9 10 mph 1018.1mb 73f 74f
6:36 6 7 mph 1018.1mb 73f 75f
6:30 3 5 mph 1018mb 73f 75f
6:24 1 2 mph 1017.9mb 73f 74f
6:18  -  1 mph 1017.8mb 73f 74f
6:12 1 3 mph 1017.8mb 73f 74f
6:06 2 5 mph 1017.8mb 73f 74f
6:00 5 5 mph 1017.7mb 73f 74f
5:54 5 6 mph 1017.6mb 73f 75f
5:48 6 7 mph 1017.6mb 73f 75f
5:42 6 8 mph 1017.6mb 73f 75f
5:36 8 8 mph 1017.6mb 73f 75f
5:30 7 7 mph 1017.6mb 73f 75f
5:24 6 6 mph 1017.6mb 73f 75f
5:18 6 6 mph 1017.5mb 73f 76f
5:12 6 6 mph 1017.4mb 73f 75f
5:06 6 6 mph 1017.4mb 73f 75f
5:00 5 5 mph 1017.5mb 73f 76f
4:54 5 5 mph 1017.4mb 73f 76f
4:48 5 6 mph 1017.3mb 73f 76f
4:42 6 6 mph 1017.3mb 73f 76f
4:36 5 6 mph 1017.3mb 73f 75f
4:30 6 7 mph 1017.3mb 73f 76f
4:24 7 7 mph 1017.3mb 73f 76f
4:18 6 6 mph 1017.3mb 73f 76f
4:12 5 5 mph 1017.3mb 73f 76f
4:06 5 6 mph 1017.4mb 73f 76f
4:00 6 6 mph 1017.4mb 73f 76f
3:54 6 7 mph 1017.4mb 73f 76f
3:48 6 7 mph 1017.4mb - -
3:42 6 7 mph 1017.5mb 72f 76f
3:36 7 7 mph 1017.5mb 72f 76f
3:30 7 7 mph 1017.6mb 72f 76f
3:24 7 7 mph 1017.6mb 72f 75f
3:18 7 7 mph 1017.6mb 72f 75f
3:12 6 6 mph 1017.6mb 72f 75f
3:06 6 6 mph 1017.6mb 72f 75f
3:00 6 7 mph 1017.6mb 72f 75f
2:54 7 7 mph 1017.7mb 72f 75f
2:48 7 8 mph 1017.8mb 72f 75f
2:42 7 7 mph 1017.8mb 72f 75f
2:36 7 8 mph 1017.9mb 72f 75f
2:30 8 8 mph 1017.9mb 72f 75f
2:24 6 7 mph 1018mb 72f 75f
2:18 6 6 mph 1017.9mb 72f 75f
2:12 6 7 mph 1018mb 72f 75f
2:06 6 6 mph 1018mb 72f 75f
2:00 3 5 mph 1018mb 72f 74f
12:54 6 7 mph 1018.5mb 72f 75f
12:48 5 7 mph 1018.6mb 72f 75f
12:42 5 7 mph 1018.7mb 72f 76f
12:36 2 6 mph 1018.8mb 72f 77f
12:30 5 7 mph 1018.9mb 72f 77f
12:24 2 8 mph 1019mb 72f 78f
12:18 6 7 mph 1019.1mb 72f 77f
12:12 6 8 mph 1019.2mb 72f 77f
12:06 6 7 mph 1019.4mb 72f 76f
12:00 5 8 mph 1019.4mb 72f 76f
11:54 6 8 mph 1019.5mb 71f 76f
11:48 5 8 mph 1019.7mb 71f 76f
11:42 5 7 mph 1019.8mb 71f 76f
11:36 5 7 mph 1019.9mb 71f 76f
11:30 6 8 mph 1020mb 71f 76f
11:24 5 7 mph 1020.1mb 71f 75f
11:18 5 8 mph 1020.2mb 71f 75f
11:12 5 7 mph 1020.2mb 71f 75f
11:06 5 6 mph 1020.3mb 71f 74f
11:00 3 7 mph 1020.4mb 71f 74f
10:54 3 6 mph 1020.4mb 71f 74f
10:48 3 6 mph 1020.4mb 71f 74f
10:42 3 6 mph 1020.6mb 71f 74f
10:36 5 6 mph 1020.6mb 71f 74f
10:30 3 6 mph 1020.6mb 71f 73f
10:24 5 8 mph 1020.6mb 71f 73f
10:18 3 7 mph 1020.5mb 71f 74f
10:12 5 7 mph 1020.5mb 71f 73f
10:06 5 7 mph 1020.5mb 71f 73f
10:00 5 8 mph 1020.5mb 71f 73f
9:54 2 8 mph 1020.4mb 71f 73f
9:48 5 8 mph 1020.4mb 71f 72f
9:42 5 7 mph 1020.4mb 71f 72f
9:36 6 9 mph 1020.3mb 71f 71f
9:30 6 8 mph 1020.2mb 71f 71f
9:24 5 8 mph 1020.2mb 71f 71f
9:18 6 8 mph 1020.2mb 71f 71f
9:12 5 8 mph 1020.2mb 71f 71f
9:06 6 8 mph 1020.2mb 71f 71f
9:00 5 8 mph 1020.2mb 71f 71f
8:54 3 6 mph 1020.1mb 71f 71f
8:48 5 7 mph 1020mb 71f 71f
8:42 5 9 mph 1020.1mb 71f 70f
8:36 5 8 mph 1020mb 71f 70f
8:30 6 8 mph 1019.9mb 71f 69f
8:24 6 8 mph 1019.8mb 71f 69f
8:18 3 6 mph 1019.8mb 71f 69f
8:12 5 6 mph 1019.8mb 71f 68f
8:06 5 7 mph 1019.7mb 71f 68f
8:00 5 7 mph 1019.7mb 71f 67f
7:54 5 6 mph 1019.7mb 71f 67f
7:48 3 6 mph 1019.6mb 71f 67f
7:42 3 7 mph 1019.6mb 71f 67f
7:36 2 7 mph 1019.6mb 71f 67f
7:30 3 6 mph 1019.6mb 71f 67f
7:24 2 5 mph 1019.6mb 71f 67f
7:18 2 6 mph 1019.6mb 71f 67f
7:12 3 6 mph 1019.5mb 71f 67f
7:06 5 5 mph 1019.5mb 71f 67f
7:00 2 5 mph 1019.5mb 71f 67f
6:54 2 6 mph 1019.5mb 71f 67f
6:48 5 6 mph 1019.5mb 71f 67f
6:42 5 6 mph 1019.5mb 71f 67f
6:36 5 7 mph 1019.5mb 71f 67f
6:30 3 6 mph 1019.5mb 71f 67f
6:24 2 6 mph 1019.5mb 71f 67f
6:18 3 6 mph 1019.5mb 71f 67f
6:12 1 2 mph 1019.4mb 71f 66f
6:06 2 2 mph 1019.4mb 71f 66f
6:00 1 2 mph 1019.4mb 71f 66f
5:54  -  2 mph 1019.1mb 71f 66f
5:48 1 2 mph 1019mb 71f 66f
5:42 1 2 mph 1018.9mb 71f 66f
5:36 1 2 mph 1018.8mb 71f 66f
5:30 1 2 mph 1018.8mb 71f 66f
5:24 1 2 mph 1018.9mb 71f 66f
5:18 2 3 mph 1018.8mb 71f 66f
5:12 2 3 mph 1018.8mb 71f 66f
5:06 2 6 mph 1018.7mb 71f 67f
5:00 3 6 mph 1018.7mb 71f 67f
4:18 3 7 mph 1018.6mb 72f 67f
4:12 6 7 mph 1018.6mb 72f 67f
4:06 6 6 mph 1018.6mb 72f 67f
4:00 5 6 mph 1018.7mb 72f 67f
3:54 5 6 mph 1018.8mb 72f 66f
3:48 5 7 mph 1018.7mb 72f 67f
3:42 5 7 mph 1018.7mb 72f 66f
3:36 6 8 mph 1018.7mb 72f 66f
3:30 8 9 mph 1018.6mb 72f 67f
3:24 6 8 mph 1018.6mb 72f 66f
3:18 7 9 mph 1018.6mb 72f 66f
3:12 7 9 mph 1018.6mb 72f 67f
3:06 8 9 mph 1018.6mb 72f 67f
3:00 7 9 mph 1018.7mb 72f 67f
2:54 7 8 mph 1018.6mb 72f 67f
2:48 7 8 mph 1018.6mb 72f 67f
2:42 6 8 mph 1018.6mb 72f 67f
2:36 6 9 mph 1018.6mb 72f 67f
2:30 8 10 mph 1018.7mb 72f 67f
2:24 6 7 mph 1018.5mb 72f 67f
2:18 5 7 mph 1018.6mb 72f 67f
2:12 6 9 mph 1018.7mb 72f 67f
2:06 6 8 mph 1018.7mb 72f 67f
2:00 6 8 mph 1018.8mb 72f 67f
1:54 6 9 mph 1018.8mb 72f 67f
1:48 8 10 mph 1018.9mb 72f 67f
1:42 7 9 mph 1019mb 72f 67f
1:36 7 8 mph 1019.1mb 72f 67f
1:30 7 9 mph 1019mb 72f 67f
1:24 7 10 mph 1019mb 72f 67f
1:18 8 10 mph 1018.9mb 72f 68f
1:12 7 9 mph 1019mb 72f 68f
1:06 7 11 mph 1019.1mb 72f 68f
1:00 8 11 mph 1019mb 72f 68f
12:54 9 11 mph 1019mb 72f 68f
12:48 8 9 mph 1019.1mb 72f 68f
12:42 8 10 mph 1019.1mb 72f 69f
12:36 6 9 mph 1019.1mb 72f 69f
12:30 5 6 mph 1019.1mb 72f 69f
12:24 5 8 mph 1019.2mb 72f 69f
12:18 5 7 mph 1019.2mb 72f 69f
12:12 6 9 mph 1019.2mb 72f 68f
12:06 8 9 mph 1019.2mb 72f 68f
12:00 8 11 mph 1019.2mb 72f 68f
Dom 11/18 11:54 9 11 mph 1019.3mb 72f 68f
11:48 9 14 mph 1019.2mb 72f 68f
11:42 11 14 mph 1019.3mb 72f 68f
11:36 9 13 mph 1019.4mb 72f 68f
11:30 8 14 mph 1019.5mb 72f 68f
11:24 10 16 mph 1019.5mb 72f 69f
11:18 13 17 mph 1019.6mb 72f 69f
11:12 14 16 mph 1019.6mb 72f 69f
11:06 13 16 mph 1019.8mb 72f 69f
11:00 13 16 mph 1019.8mb 72f 69f
10:54 11 14 mph 1019.8mb 72f 69f
10:48 10 13 mph 1019.9mb 72f 69f
10:42 9 11 mph 1019.9mb 72f 69f
10:36 8 11 mph 1019.9mb 72f 69f
10:30 8 11 mph 1020mb 72f 69f
10:24 8 11 mph 1020mb 72f 69f
10:18 8 10 mph 1020mb 72f 69f
10:12 7 13 mph 1020.1mb 72f 69f
10:06 10 13 mph 1020.1mb 72f 70f
10:00 9 11 mph 1020.1mb 72f 70f
9:54 8 11 mph 1020.1mb 72f 70f
9:48 7 9 mph 1020.1mb 72f 70f
9:42 6 9 mph 1020mb 72f 70f
9:36 9 13 mph 1019.9mb 72f 70f
9:30 11 14 mph 1019.9mb 72f 70f
9:24 11 14 mph 1019.9mb 72f 70f
9:18 8 10 mph 1020mb 72f 70f
9:12 9 13 mph 1020mb 72f 70f
9:06 10 14 mph 1020mb 72f 70f
9:00 11 14 mph 1020mb 72f 70f
8:54 11 14 mph 1020mb 72f 71f
8:48 10 13 mph 1020mb 72f 70f
8:42 8 10 mph 1020mb 72f 71f
8:36 8 11 mph 1019.9mb 72f 71f
8:30 8 11 mph 1019.9mb 72f 71f
8:24 9 13 mph 1019.9mb 72f 70f
8:18 10 14 mph 1019.9mb 72f 70f
8:12 13 15 mph 1019.8mb 72f 70f
8:06 14 16 mph 1019.7mb 72f 71f
8:00 11 14 mph 1019.8mb 72f 71f
7:54 11 14 mph 1019.8mb 72f 71f
7:48 11 13 mph 1019.8mb 72f 71f
7:42 10 14 mph 1019.8mb 72f 71f
7:36 10 13 mph 1019.8mb 72f 71f
7:30 11 14 mph 1019.7mb 72f 71f
7:24 10 13 mph 1019.7mb 72f 71f
7:18 9 11 mph 1019.7mb 72f 71f
7:12 10 13 mph 1019.6mb 72f 71f
7:06 11 13 mph 1019.6mb 72f 71f
7:00 10 11 mph 1019.5mb 72f 71f
6:54 10 11 mph 1019.4mb 72f 72f
6:48 9 10 mph 1019.3mb 72f 72f
6:42 9 10 mph 1019.2mb 72f 72f
6:36 9 10 mph 1019.2mb 72f 72f
6:30 9 11 mph 1019.2mb 72f 72f
6:24 10 11 mph 1019.1mb 72f 72f
6:18 9 10 mph 1019mb 72f 72f
6:12 9 10 mph 1018.9mb 72f 73f
6:06 8 9 mph 1018.9mb 72f 72f
6:00 8 9 mph 1018.9mb 72f 73f
5:54 8 9 mph 1018.8mb 72f 73f
5:48 8 9 mph 1018.8mb 72f 72f
5:42 8 9 mph 1018.8mb 72f 73f
5:36 7 8 mph 1018.8mb 72f 73f
5:30 8 8 mph 1018.8mb 72f 73f
5:24 7 7 mph 1018.8mb 72f 73f
5:18 7 7 mph 1018.7mb 72f 73f
5:12 5 6 mph 1018.7mb 72f 74f
5:06 5 6 mph 1018.7mb 72f 74f
5:00 5 6 mph 1018.7mb 72f 74f
4:54 5 6 mph 1018.6mb 72f 74f
4:48 6 7 mph 1018.6mb 72f 74f
4:42 6 7 mph 1018.6mb 72f 74f
4:36 7 8 mph 1018.7mb 72f 74f
4:30 8 8 mph 1018.7mb 72f 74f
4:24 7 7 mph 1018.6mb 72f 74f
4:18 7 7 mph 1018.6mb 72f 74f
4:12 6 7 mph 1018.7mb 72f 74f
4:06 6 6 mph 1018.8mb 72f 74f
4:00 6 6 mph 1018.9mb 72f 74f
3:54 6 6 mph 1018.9mb 72f 74f
3:48 6 6 mph 1018.9mb 72f 74f
3:42 6 6 mph 1018.8mb 72f 74f
3:36 6 6 mph 1018.8mb 72f 73f
3:30 6 6 mph 1018.9mb 72f 74f
3:24 6 6 mph 1018.9mb 72f 73f
3:18 5 5 mph 1019mb 72f 73f
3:12 5 6 mph 1019mb 72f 73f
3:06 6 6 mph 1019.1mb 72f 73f
3:00 6 7 mph 1019.1mb 72f 73f
2:54 7 7 mph 1019.2mb 71f 72f
2:48 6 6 mph 1019.2mb 71f 73f
2:42 6 7 mph 1019.2mb 71f 73f
2:36 7 7 mph 1019.2mb 71f 73f
2:30 7 7 mph 1019.3mb 71f 72f
2:24 7 8 mph 1019.4mb 71f 72f
2:18 7 8 mph 1019.4mb 71f 72f
2:12 6 7 mph 1019.4mb 71f 72f
2:06 7 7 mph 1019.5mb 71f 72f
2:00 7 7 mph 1019.6mb 71f 72f
1:18 6 7 mph 1019.9mb 72f 72f
1:12 6 6 mph 1020mb 72f 72f
1:06 5 6 mph 1020.2mb 72f 72f
1:00 5 5 mph 1020.3mb 72f 72f
12:54 3 5 mph 1020.4mb 71f 71f
12:48 3 5 mph 1020.5mb 71f 71f
12:42 5 5 mph 1020.5mb 72f 71f
12:36 5 5 mph 1020.7mb 71f 71f
12:30 5 5 mph 1020.9mb 71f 72f
12:24 5 6 mph 1021.1mb 71f 72f
12:18 6 6 mph 1021.1mb 71f 72f
12:12 5 6 mph 1021.3mb 71f 72f
12:06 6 6 mph 1021.4mb 71f 72f
12:00 3 6 mph 1021.4mb 71f 71f
11:54 5 7 mph 1021.4mb 71f 71f
11:48 6 8 mph 1021.5mb 71f 70f
11:42 6 7 mph 1021.5mb 71f 69f
11:36 5 6 mph 1021.6mb 71f 69f
11:30 6 6 mph 1021.8mb 71f 69f
11:24 3 5 mph 1021.9mb 71f 69f
11:18 5 5 mph 1022mb 71f 69f
11:12 3 3 mph 1022.1mb 71f 69f
11:06 2 3 mph 1022.2mb 71f 69f
11:00 1 2 mph 1022.3mb 71f 69f
10:54 2 3 mph 1022.4mb 71f 68f
10:48 3 5 mph 1022.4mb 71f 68f
10:42 2 3 mph 1022.4mb 71f 68f
10:36  -  3 mph 1022.4mb 71f 68f
10:30 2 5 mph 1022.3mb 71f 68f
10:24 5 6 mph 1022.2mb 71f 67f
10:18 2 5 mph 1022.4mb 71f 67f
10:12 2 5 mph 1022.4mb 71f 67f
10:06 3 6 mph 1022.3mb 71f 67f
10:00 3 5 mph 1022.4mb 71f 67f
9:54 3 6 mph 1022.3mb 71f 66f
9:48 5 6 mph 1022.3mb 71f 66f
9:42 3 5 mph 1022.3mb 71f 66f
9:36 3 6 mph 1022.2mb 71f 66f
9:30 3 6 mph 1022.2mb 71f 66f
9:24 5 7 mph 1022.1mb 71f 65f
9:18 3 6 mph 1022.2mb 71f 65f
9:12 3 6 mph 1022.2mb 71f 65f
9:06 5 7 mph 1022.1mb 71f 65f
9:00 5 7 mph 1021.9mb 71f 65f
8:54 5 7 mph 1021.8mb 71f 65f
8:48 5 7 mph 1021.8mb 71f 64f
8:42 6 8 mph 1021.7mb 71f 64f
8:36 6 8 mph 1021.7mb 71f 64f
8:30 7 9 mph 1021.7mb 71f 64f
8:24 7 8 mph 1021.7mb 71f 63f
8:18 6 7 mph 1021.7mb 71f 63f
8:12 5 6 mph 1021.6mb 71f 63f
8:06 6 7 mph 1021.6mb 71f 63f
8:00 5 6 mph 1021.5mb 71f 63f
7:54 2 6 mph 1021.5mb 71f 62f
7:48 5 7 mph 1021.4mb 71f 62f
7:42 6 8 mph 1021.3mb 71f 62f
7:36 6 9 mph 1021.3mb 71f 62f
7:30 6 10 mph 1021.2mb 71f 62f
7:24 7 11 mph 1021.2mb 71f 62f
7:18 7 8 mph 1021.1mb 71f 62f
7:12 6 7 mph 1021mb 71f 62f
7:06 3 7 mph 1020.9mb 71f 62f
7:00 5 6 mph 1020.9mb 71f 62f
6:54 5 7 mph 1020.8mb 71f 62f
6:48 3 7 mph 1020.7mb 71f 62f
6:42 6 9 mph 1020.7mb 70f 62f
6:36 5 8 mph 1020.6mb 70f 62f
6:30 3 7 mph 1020.6mb 70f 62f
6:24 3 7 mph 1020.4mb 70f 62f
6:18 5 7 mph 1020.4mb 70f 62f
6:12 2 6 mph 1020.4mb 70f 62f
6:06 5 8 mph 1020.3mb 70f 62f
6:00 6 8 mph 1020.3mb 71f 62f
5:54 5 7 mph 1020.3mb 71f 62f
5:48 5 7 mph 1020.2mb 71f 62f
5:42 5 7 mph 1020.3mb 71f 62f
5:36 5 7 mph 1020.3mb 71f 62f
5:30 3 6 mph 1020.2mb 71f 62f
5:24 3 7 mph 1020.3mb 71f 62f
5:18 5 7 mph 1020.1mb 71f 61f
5:12 5 7 mph 1020.1mb 71f 61f
5:06 3 7 mph 1020mb 71f 61f
5:00 5 7 mph 1019.9mb 71f 61f
4:18 5 9 mph 1019.7mb 71f 61f
4:12 5 8 mph 1019.7mb 71f 61f
4:06 7 10 mph 1019.8mb 71f 61f
4:00 6 11 mph 1019.9mb 71f 62f
3:54 7 9 mph 1019.8mb 71f 62f
3:48 7 9 mph 1019.8mb 71f 62f
3:42 7 10 mph 1019.9mb 71f 62f
3:36 8 11 mph 1019.9mb 71f 62f
3:30 7 9 mph 1019.9mb 72f 62f
3:24 6 8 mph 1019.9mb 72f 62f
3:18 5 7 mph 1020mb 72f 62f
3:12 6 7 mph 1020.1mb 72f 62f
3:06 5 7 mph 1020mb 72f 62f
3:00 5 8 mph 1020mb 72f 62f
2:54 6 7 mph 1019.9mb 72f 62f
2:48 5 8 mph 1019.9mb 72f 62f
2:42 6 8 mph 1019.8mb 72f 62f
2:36 6 7 mph 1019.8mb 72f 62f
2:30 6 8 mph 1019.9mb 72f 62f
2:24 5 7 mph 1019.9mb 72f 62f
2:18 5 8 mph 1019.8mb 72f 62f
2:12 6 8 mph 1020mb 72f 62f
2:06 6 8 mph 1020.1mb 72f 63f
2:00 3 6 mph 1020.1mb 72f 63f
1:54 5 6 mph 1020mb 72f 62f
1:48 3 7 mph 1020mb 72f 62f
1:42 6 8 mph 1020mb 72f 62f
1:36 5 6 mph 1020.1mb 72f 62f
1:30 3 6 mph 1020.1mb 72f 62f
1:24 3 6 mph 1020.3mb 72f 62f
1:18 5 6 mph 1020.4mb 72f 63f
1:12 3 6 mph 1020.4mb 72f 63f
1:06 2 5 mph 1020.4mb 72f 63f
1:00 2 8 mph 1020.4mb 72f 63f
12:54 6 8 mph 1020.4mb 72f 63f
12:48 5 7 mph 1020.4mb 72f 63f
12:42 5 8 mph 1020.4mb 72f 63f
12:36 5 8 mph 1020.2mb 72f 63f
12:30 6 9 mph 1020.1mb 72f 63f
12:24 3 5 mph 1020.1mb 72f 62f
12:18 2 5 mph 1020.1mb 72f 62f
12:12 3 6 mph 1020mb 72f 62f
12:06 3 6 mph 1020mb 72f 62f
12:00 3 7 mph 1020mb 72f 62f
Sáb 11/17 11:54 5 7 mph 1020mb 72f 63f
11:48 5 8 mph 1020.2mb 72f 63f
11:42 3 6 mph 1020.3mb 72f 63f
11:36 6 8 mph 1020.2mb 72f 63f
11:30 5 7 mph 1020.2mb 72f 63f
11:24 3 6 mph 1020.3mb 72f 63f
11:18 3 6 mph 1020.4mb 72f 63f
11:12 2 5 mph 1020.5mb 72f 63f
11:06 2 6 mph 1020.5mb 72f 63f
11:00 5 6 mph 1020.4mb 72f 63f
10:54 3 6 mph 1020.4mb 72f 63f
10:48 3 7 mph 1020.2mb 72f 64f
10:42 5 7 mph 1020.4mb 72f 64f
10:36 5 7 mph 1020.4mb 72f 64f
10:30 3 6 mph 1020.5mb 72f 64f
10:24 3 7 mph 1020.6mb 72f 64f
10:18 6 8 mph 1020.6mb 72f 64f
10:12 5 6 mph 1020.7mb 72f 64f
10:06 6 7 mph 1020.6mb 72f 64f
10:00 5 8 mph 1020.7mb 72f 64f
9:54 7 9 mph 1020.7mb 72f 64f
9:48 5 7 mph 1020.7mb 71f 64f
9:42 5 6 mph 1020.8mb 72f 64f
9:36 5 8 mph 1020.8mb 72f 65f
9:30 3 7 mph 1020.7mb 72f 64f
9:24 5 6 mph 1020.8mb 72f 65f
9:18 3 5 mph 1020.8mb 72f 65f
9:12 5 8 mph 1020.8mb 72f 65f
9:06 6 8 mph 1020.7mb 72f 65f